Time;durP1;ratioP1;P1;durP2;ratioP2;P2;SDS_P1;SDS_P2;PMS_P1;PMS_P2;Temp;Humidity;BMP_temperature;BMP_pressure;BME280_temperature;BME280_humidity;BME280_pressure;Samples;Min_cycle;Max_cycle;Signal;HPM_P1;HPM_P2
2023/01/28 00:00:20;;;;;;;25.17;12.93;;;;;;;;;;4993756;28;20556;-86
2023/01/28 00:03:24;;;;;;;26.90;13.00;;;;;;;;;;4992347;28;20647;-87
2023/01/28 00:06:28;;;;;;;28.03;12.57;;;;;;;;;;5003685;28;20603;-87
2023/01/28 00:09:33;;;;;;;24.37;13.13;;;;;;;;;;5003358;28;20615;-86
2023/01/28 00:12:37;;;;;;;25.00;12.20;;;;;;;;;;4992764;28;20623;-86
2023/01/28 00:15:41;;;;;;;24.37;12.87;;;;;;;;;;5003802;28;20579;-87
2023/01/28 00:18:45;;;;;;;23.83;12.93;;;;;;;;;;4992232;28;20595;-86
2023/01/28 00:21:49;;;;;;;25.23;13.47;;;;;;;;;;5006218;28;20603;-87
2023/01/28 00:24:53;;;;;;;18.93;11.60;;;;;;;;;;4993962;28;20559;-86
2023/01/28 00:27:57;;;;;;;24.23;12.60;;;;;;;;;;5003035;28;21177;-86
2023/01/28 00:31:09;;;;;;;23.33;11.60;;;;;;;;;;4992295;28;20651;-87
2023/01/28 00:34:13;;;;;;;22.73;12.37;;;;;;;;;;5002977;28;20573;-86
2023/01/28 00:37:18;;;;;;;25.67;12.93;;;;;;;;;;4980937;28;20572;-86
2023/01/28 00:40:22;;;;;;;22.70;11.40;;;;;;;;;;4991683;28;20908;-87
2023/01/28 00:43:26;;;;;;;22.40;11.50;;;;;;;;;;4992083;28;20623;-87
2023/01/28 00:46:30;;;;;;;21.40;11.53;;;;;;;;;;4992973;28;20608;-86
2023/01/28 00:49:35;;;;;;;22.97;11.87;;;;;;;;;;4992300;28;20616;-86
2023/01/28 00:52:39;;;;;;;16.87;9.87;;;;;;;;;;4991658;28;20631;-87
2023/01/28 00:55:43;;;;;;;21.13;11.40;;;;;;;;;;4991954;28;20556;-87
2023/01/28 00:58:48;;;;;;;20.70;10.93;;;;;;;;;;4992205;28;20560;-86
2023/01/28 01:01:52;;;;;;;21.97;10.93;;;;;;;;;;5006171;28;20623;-87
2023/01/28 01:04:58;;;;;;;21.53;10.47;;;;;;;;;;4994301;28;20599;-87
2023/01/28 01:08:03;;;;;;;20.30;10.57;;;;;;;;;;4991774;28;20564;-87
2023/01/28 01:11:10;;;;;;;23.00;10.97;;;;;;;;;;4981732;28;20684;-87
2023/01/28 01:14:14;;;;;;;21.80;10.33;;;;;;;;;;5003509;28;20556;-86
2023/01/28 01:17:20;;;;;;;18.07;10.10;;;;;;;;;;5003205;28;20591;-86
2023/01/28 01:20:27;;;;;;;18.53;10.37;;;;;;;;;;4982096;28;20552;-86
2023/01/28 01:23:32;;;;;;;20.73;10.73;;;;;;;;;;4983021;28;20631;-87
2023/01/28 01:26:36;;;;;;;19.33;10.93;;;;;;;;;;4991103;28;20555;-87
2023/01/28 01:29:40;;;;;;;20.17;10.87;;;;;;;;;;4990511;28;20607;-87
2023/01/28 01:32:44;;;;;;;19.70;10.73;;;;;;;;;;4979382;28;20627;-87
2023/01/28 01:35:53;;;;;;;21.43;11.13;;;;;;;;;;4980335;28;20560;-86
2023/01/28 01:38:58;;;;;;;18.73;10.20;;;;;;;;;;4990816;28;20599;-86
2023/01/28 01:42:02;;;;;;;19.47;11.00;;;;;;;;;;5001503;28;20635;-86
2023/01/28 01:45:13;;;;;;;18.20;10.47;;;;;;;;;;4990671;28;20611;-87
2023/01/28 01:48:21;;;;;;;21.03;10.73;;;;;;;;;;4979911;28;20560;-87
2023/01/28 01:51:31;;;;;;;19.03;10.17;;;;;;;;;;5002527;28;20616;-87
2023/01/28 01:54:38;;;;;;;20.27;10.33;;;;;;;;;;5004766;28;20607;-86
2023/01/28 01:57:45;;;;;;;19.97;9.87;;;;;;;;;;4990654;28;20556;-86
2023/01/28 02:00:50;;;;;;;20.40;10.07;;;;;;;;;;4980113;28;20568;-86
2023/01/28 02:04:04;;;;;;;21.00;10.93;;;;;;;;;;4991171;28;20651;-87
2023/01/28 02:07:11;;;;;;;18.87;10.37;;;;;;;;;;4991005;28;20560;-87
2023/01/28 02:10:17;;;;;;;18.23;9.60;;;;;;;;;;4990596;28;20611;-86
2023/01/28 02:13:29;;;;;;;16.90;9.57;;;;;;;;;;4991027;28;20635;-87
2023/01/28 02:16:33;;;;;;;16.87;9.33;;;;;;;;;;4993161;28;20557;-87
2023/01/28 02:19:44;;;;;;;19.87;10.20;;;;;;;;;;4992542;28;20553;-86
2023/01/28 02:23:16;;;;;;;18.90;9.50;;;;;;;;;;4990870;28;20635;-86
2023/01/28 02:26:50;;;;;;;17.07;8.73;;;;;;;;;;4991013;28;20557;-86
2023/01/28 02:30:00;;;;;;;16.83;9.63;;;;;;;;;;4992945;28;20620;-86
2023/01/28 02:33:14;;;;;;;18.27;8.83;;;;;;;;;;4993572;28;21215;-87
2023/01/28 02:36:33;;;;;;;15.73;8.73;;;;;;;;;;4991320;28;20548;-87
2023/01/28 02:39:48;;;;;;;17.37;9.43;;;;;;;;;;4994037;28;20572;-86
2023/01/28 02:42:52;;;;;;;16.23;9.30;;;;;;;;;;4992627;28;20623;-86
2023/01/28 02:49:52;;;;;;;15.07;8.70;;;;;;;;;;4994764;28;21136;-86
2023/01/28 02:56:28;;;;;;;13.73;8.07;;;;;;;;;;4993538;28;20557;-86
2023/01/28 02:59:50;;;;;;;16.47;8.43;;;;;;;;;;4994279;28;20583;-86
2023/01/28 03:03:01;;;;;;;11.57;7.53;;;;;;;;;;5005340;28;21019;-86
2023/01/28 03:06:13;;;;;;;12.07;6.97;;;;;;;;;;4994354;28;20603;-86
2023/01/28 03:09:21;;;;;;;12.20;7.97;;;;;;;;;;5005551;28;20556;-86
2023/01/28 03:39:51;;;;;;;16.10;7.77;;;;;;;;;;4993968;28;20552;-86
2023/01/28 03:42:56;;;;;;;12.10;7.87;;;;;;;;;;4993269;28;20635;-86
2023/01/28 03:46:10;;;;;;;14.07;8.13;;;;;;;;;;4983647;28;20556;-86
2023/01/28 03:49:15;;;;;;;12.33;8.00;;;;;;;;;;5004686;28;20569;-86
2023/01/28 03:52:22;;;;;;;12.63;8.30;;;;;;;;;;4993110;28;20612;-86
2023/01/28 03:55:26;;;;;;;13.93;8.43;;;;;;;;;;4993271;28;21127;-86
2023/01/28 03:58:51;;;;;;;13.60;8.07;;;;;;;;;;4993020;28;20563;-86
2023/01/28 04:01:55;;;;;;;12.17;7.77;;;;;;;;;;4982313;28;20631;-87
2023/01/28 04:04:59;;;;;;;12.80;7.67;;;;;;;;;;4993303;28;20560;-87
2023/01/28 04:08:04;;;;;;;12.03;7.70;;;;;;;;;;4996436;28;20629;-86
2023/01/28 04:11:27;;;;;;;12.17;7.40;;;;;;;;;;5008039;28;20612;-86
2023/01/28 04:14:33;;;;;;;11.30;6.83;;;;;;;;;;5007627;28;20610;-86
2023/01/28 04:18:00;;;;;;;12.93;8.23;;;;;;;;;;4994572;28;20568;-86
2023/01/28 04:21:07;;;;;;;12.77;7.50;;;;;;;;;;4992002;28;20548;-86
2023/01/28 04:24:12;;;;;;;15.53;8.23;;;;;;;;;;4995703;28;20564;-86
2023/01/28 04:27:16;;;;;;;12.83;7.40;;;;;;;;;;4995320;28;20556;-86
2023/01/28 04:30:21;;;;;;;13.87;8.07;;;;;;;;;;5006184;28;20612;-87
2023/01/28 04:33:46;;;;;;;13.70;7.60;;;;;;;;;;4998808;28;20625;-86
2023/01/28 04:36:58;;;;;;;13.67;7.47;;;;;;;;;;4991940;28;20564;-86
2023/01/28 04:40:22;;;;;;;13.27;8.50;;;;;;;;;;4998781;28;20568;-87
2023/01/28 04:43:33;;;;;;;15.63;8.33;;;;;;;;;;4983236;28;20989;-87
2023/01/28 04:46:56;;;;;;;14.77;8.90;;;;;;;;;;4997889;28;20565;-86
2023/01/28 04:50:18;;;;;;;14.33;8.23;;;;;;;;;;4991982;28;21136;-87
2023/01/28 04:53:37;;;;;;;13.20;7.80;;;;;;;;;;4991603;28;20619;-87
2023/01/28 04:57:02;;;;;;;16.53;8.47;;;;;;;;;;4994430;28;20561;-87
2023/01/28 05:00:07;;;;;;;15.10;8.17;;;;;;;;;;4991848;28;20579;-86
2023/01/28 05:03:11;;;;;;;15.43;8.73;;;;;;;;;;4991285;28;20984;-86
2023/01/28 05:06:15;;;;;;;15.10;7.90;;;;;;;;;;5002141;28;20924;-87
2023/01/28 05:09:22;;;;;;;13.77;7.40;;;;;;;;;;4991542;28;20564;-87
2023/01/28 05:12:29;;;;;;;13.40;8.53;;;;;;;;;;4990788;28;20659;-86
2023/01/28 05:15:34;;;;;;;14.33;8.07;;;;;;;;;;4980799;28;20560;-86
2023/01/28 05:18:38;;;;;;;12.60;7.77;;;;;;;;;;4993933;28;20564;-85
2023/01/28 05:21:48;;;;;;;14.50;7.87;;;;;;;;;;4994538;28;20604;-87
2023/01/28 05:25:02;;;;;;;14.13;8.47;;;;;;;;;;4991625;28;20596;-86
2023/01/28 05:28:06;;;;;;;12.97;7.60;;;;;;;;;;4991220;28;20922;-87
2023/01/28 05:31:10;;;;;;;12.20;7.00;;;;;;;;;;4993244;28;20972;-87
2023/01/28 05:34:15;;;;;;;15.07;8.17;;;;;;;;;;4991398;28;21323;-87
2023/01/28 05:37:20;;;;;;;14.50;8.53;;;;;;;;;;4980177;28;20552;-87
2023/01/28 05:40:25;;;;;;;14.67;8.30;;;;;;;;;;4991463;28;20609;-86
2023/01/28 05:43:29;;;;;;;12.67;8.17;;;;;;;;;;4990834;28;20624;-87
2023/01/28 05:46:51;;;;;;;15.00;8.30;;;;;;;;;;4981866;28;20564;-87
2023/01/28 05:50:14;;;;;;;14.90;8.30;;;;;;;;;;4993701;28;20565;-87
2023/01/28 05:53:41;;;;;;;13.50;7.80;;;;;;;;;;4995773;28;20613;-87
2023/01/28 05:56:46;;;;;;;13.07;8.10;;;;;;;;;;4979541;28;20563;-87
2023/01/28 05:59:50;;;;;;;16.30;9.03;;;;;;;;;;4980837;28;20565;-86
2023/01/28 06:02:54;;;;;;;12.93;7.80;;;;;;;;;;4983069;28;20627;-87
2023/01/28 06:06:00;;;;;;;14.53;8.83;;;;;;;;;;4982434;28;21131;-87
2023/01/28 06:09:04;;;;;;;13.93;8.17;;;;;;;;;;4990720;28;20561;-87
2023/01/28 06:12:09;;;;;;;13.13;8.53;;;;;;;;;;5003320;28;20659;-86
2023/01/28 06:15:24;;;;;;;14.13;8.57;;;;;;;;;;4994389;28;20928;-87
2023/01/28 06:18:48;;;;;;;14.63;8.97;;;;;;;;;;5008990;28;20573;-86
2023/01/28 06:21:53;;;;;;;13.53;8.27;;;;;;;;;;4998215;28;20631;-86
2023/01/28 06:24:57;;;;;;;13.27;7.73;;;;;;;;;;4994727;28;21123;-86
2023/01/28 06:28:01;;;;;;;14.50;8.83;;;;;;;;;;4996011;28;20556;-87
2023/01/28 06:31:06;;;;;;;18.73;11.60;;;;;;;;;;4994029;28;20644;-87
2023/01/28 06:34:10;;;;;;;16.10;10.00;;;;;;;;;;4993672;28;20563;-86
2023/01/28 06:37:14;;;;;;;21.50;11.97;;;;;;;;;;4994205;28;21138;-87
2023/01/28 06:40:20;;;;;;;19.13;11.63;;;;;;;;;;5005015;28;21122;-87
2023/01/28 06:43:29;;;;;;;18.83;10.83;;;;;;;;;;4993653;28;20651;-86
2023/01/28 06:46:34;;;;;;;15.13;9.27;;;;;;;;;;4994341;28;20607;-87
2023/01/28 06:49:38;;;;;;;17.27;9.23;;;;;;;;;;4996523;28;21112;-86
2023/01/28 06:52:42;;;;;;;13.33;8.30;;;;;;;;;;4997252;28;20663;-86
2023/01/28 06:55:47;;;;;;;13.80;8.23;;;;;;;;;;4994597;28;20565;-86
2023/01/28 06:58:50;;;;;;;14.40;9.17;;;;;;;;;;5004622;28;20556;-86
2023/01/28 07:01:56;;;;;;;15.00;8.70;;;;;;;;;;4994345;28;21045;-87
2023/01/28 07:05:01;;;;;;;13.13;8.10;;;;;;;;;;4982735;28;20552;-87
2023/01/28 07:08:05;;;;;;;14.23;8.87;;;;;;;;;;5005629;28;20917;-86
2023/01/28 07:11:10;;;;;;;14.83;8.17;;;;;;;;;;4997296;28;20687;-87
2023/01/28 07:14:14;;;;;;;11.57;8.37;;;;;;;;;;4993951;28;20568;-86
2023/01/28 07:17:18;;;;;;;13.73;8.80;;;;;;;;;;4994045;28;20556;-86
2023/01/28 07:20:22;;;;;;;13.87;8.90;;;;;;;;;;4996396;28;20558;-87
2023/01/28 07:23:26;;;;;;;16.13;8.73;;;;;;;;;;5005600;28;21198;-87
2023/01/28 07:26:30;;;;;;;15.23;9.13;;;;;;;;;;4994427;28;20624;-87
2023/01/28 07:29:34;;;;;;;12.70;8.57;;;;;;;;;;5004084;28;20936;-87
2023/01/28 07:32:38;;;;;;;16.13;9.17;;;;;;;;;;4981818;28;20656;-87
2023/01/28 07:35:43;;;;;;;16.50;9.93;;;;;;;;;;4995176;28;20564;-86
2023/01/28 07:38:47;;;;;;;14.10;8.73;;;;;;;;;;5004160;28;20564;-86
2023/01/28 07:41:51;;;;;;;17.03;8.90;;;;;;;;;;4992932;28;21114;-87
2023/01/28 07:45:29;;;;;;;14.00;8.50;;;;;;;;;;5004474;28;20596;-87
2023/01/28 07:48:34;;;;;;;16.80;9.10;;;;;;;;;;5006058;28;20553;-86
2023/01/28 07:51:38;;;;;;;16.10;9.60;;;;;;;;;;4985730;28;20608;-86
2023/01/28 07:54:42;;;;;;;14.63;8.03;;;;;;;;;;4995524;28;20564;-86
2023/01/28 07:57:55;;;;;;;15.70;8.17;;;;;;;;;;4994881;28;20549;-86
2023/01/28 08:01:00;;;;;;;14.20;8.77;;;;;;;;;;5007049;28;20553;-86
2023/01/28 08:04:04;;;;;;;18.03;9.07;;;;;;;;;;4981601;28;20596;-86
2023/01/28 08:07:09;;;;;;;14.27;8.70;;;;;;;;;;5015852;28;20540;-86
2023/01/28 08:10:14;;;;;;;15.50;9.10;;;;;;;;;;4981861;28;20553;-86
2023/01/28 08:13:18;;;;;;;15.67;9.83;;;;;;;;;;5003716;28;20660;-86
2023/01/28 08:16:22;;;;;;;14.77;8.67;;;;;;;;;;5004071;28;21139;-87
2023/01/28 08:19:27;;;;;;;16.47;9.47;;;;;;;;;;4982769;28;20901;-86
2023/01/28 08:22:31;;;;;;;17.43;9.17;;;;;;;;;;4992586;28;20613;-86
2023/01/28 08:25:36;;;;;;;15.73;8.97;;;;;;;;;;4981336;28;20548;-87
2023/01/28 08:28:40;;;;;;;14.67;8.70;;;;;;;;;;4991702;28;20893;-87
2023/01/28 08:31:44;;;;;;;11.83;8.10;;;;;;;;;;5002524;28;20600;-87
2023/01/28 08:34:48;;;;;;;13.20;8.67;;;;;;;;;;4981680;28;20561;-87
2023/01/28 08:37:53;;;;;;;15.67;9.70;;;;;;;;;;4995935;28;20565;-86
2023/01/28 08:40:58;;;;;;;14.60;9.40;;;;;;;;;;4992787;28;20583;-87
2023/01/28 08:44:02;;;;;;;15.77;9.17;;;;;;;;;;5003301;28;21190;-86
2023/01/28 08:47:06;;;;;;;22.07;12.07;;;;;;;;;;4993470;28;20556;-87
2023/01/28 08:50:10;;;;;;;17.33;10.50;;;;;;;;;;4980629;28;20551;-87
2023/01/28 08:53:18;;;;;;;16.70;9.90;;;;;;;;;;4981174;28;20659;-86
2023/01/28 08:56:22;;;;;;;17.37;9.50;;;;;;;;;;5002914;28;20549;-86
2023/01/28 08:59:26;;;;;;;21.73;13.00;;;;;;;;;;5002677;28;20941;-87
2023/01/28 09:02:31;;;;;;;22.10;12.47;;;;;;;;;;4993317;28;21015;-87
2023/01/28 09:05:36;;;;;;;14.77;9.67;;;;;;;;;;4983316;28;20570;-86
2023/01/28 09:08:40;;;;;;;15.17;9.67;;;;;;;;;;4994444;28;20545;-87
2023/01/28 09:11:44;;;;;;;18.50;10.07;;;;;;;;;;4982358;28;20608;-87
2023/01/28 09:14:48;;;;;;;17.47;10.17;;;;;;;;;;4990935;28;20563;-86
2023/01/28 09:17:57;;;;;;;16.07;9.63;;;;;;;;;;4991802;28;20564;-86
2023/01/28 09:21:04;;;;;;;20.03;11.33;;;;;;;;;;4980019;28;20545;-87
2023/01/28 09:24:11;;;;;;;17.90;9.83;;;;;;;;;;5002214;28;20560;-87
2023/01/28 09:27:16;;;;;;;19.97;11.53;;;;;;;;;;4990984;28;20889;-87
2023/01/28 09:30:20;;;;;;;18.33;10.70;;;;;;;;;;4990903;28;20575;-87
2023/01/28 09:33:24;;;;;;;22.33;13.43;;;;;;;;;;5005387;28;20669;-87
2023/01/28 09:36:29;;;;;;;17.03;10.00;;;;;;;;;;4993369;28;20607;-87
2023/01/28 09:39:33;;;;;;;18.30;10.67;;;;;;;;;;4990510;28;20560;-87
2023/01/28 09:42:56;;;;;;;15.67;8.77;;;;;;;;;;5002585;28;20619;-86
2023/01/28 09:46:05;;;;;;;16.10;8.70;;;;;;;;;;4980484;28;20882;-87
2023/01/28 09:49:33;;;;;;;18.90;9.07;;;;;;;;;;4991222;28;20544;-86
2023/01/28 09:52:40;;;;;;;14.20;9.10;;;;;;;;;;4990907;28;20667;-87
2023/01/28 09:56:03;;;;;;;15.97;8.57;;;;;;;;;;4990753;28;20596;-87
2023/01/28 09:59:22;;;;;;;15.77;8.43;;;;;;;;;;4991276;28;20549;-87
2023/01/28 10:02:56;;;;;;;13.93;8.50;;;;;;;;;;4980304;28;20621;-86
2023/01/28 10:06:18;;;;;;;15.27;9.13;;;;;;;;;;4991378;28;20553;-86
2023/01/28 10:09:54;;;;;;;13.40;8.30;;;;;;;;;;5004297;28;20893;-86
2023/01/28 10:13:30;;;;;;;15.17;8.77;;;;;;;;;;4979124;28;21008;-88
2023/01/28 10:16:42;;;;;;;22.13;11.57;;;;;;;;;;4979476;28;20553;-87
2023/01/28 10:19:59;;;;;;;17.20;9.23;;;;;;;;;;4990146;28;20568;-87
2023/01/28 10:23:26;;;;;;;13.97;8.73;;;;;;;;;;5003777;28;20609;-87
2023/01/28 10:26:38;;;;;;;15.57;9.07;;;;;;;;;;5006303;28;20925;-87
2023/01/28 10:29:44;;;;;;;15.07;9.47;;;;;;;;;;4989968;28;20553;-87
2023/01/28 10:32:52;;;;;;;14.47;8.63;;;;;;;;;;4990945;28;21238;-86
2023/01/28 10:36:10;;;;;;;14.60;9.17;;;;;;;;;;4994976;28;20565;-87
2023/01/28 10:39:23;;;;;;;19.13;9.57;;;;;;;;;;5007133;28;21109;-87
2023/01/28 10:42:32;;;;;;;22.20;11.77;;;;;;;;;;4995530;28;20628;-87
2023/01/28 10:45:42;;;;;;;23.33;12.03;;;;;;;;;;4984166;28;20611;-87
2023/01/28 10:48:55;;;;;;;17.67;10.13;;;;;;;;;;4982494;28;20603;-87
2023/01/28 10:52:10;;;;;;;16.63;10.07;;;;;;;;;;5012184;28;20639;-87
2023/01/28 10:55:21;;;;;;;15.97;10.17;;;;;;;;;;4990526;28;20564;-87
2023/01/28 10:58:35;;;;;;;16.47;10.07;;;;;;;;;;5012460;28;20556;-88
2023/01/28 11:01:56;;;;;;;22.70;12.93;;;;;;;;;;4978503;28;20556;-87
2023/01/28 11:05:52;;;;;;;24.37;14.33;;;;;;;;;;4973200;28;20560;-86
